Time;durP1;ratioP1;P1;durP2;ratioP2;P2;SDS_P1;SDS_P2;PMS_P1;PMS_P2;Temp;Humidity;BMP_temperature;BMP_pressure;BME280_temperature;BME280_humidity;BME280_pressure;Samples;Min_cycle;Max_cycle;Signal;HPM_P1;HPM_P2
2022/12/02 00:01:53;;;;;;;5.43;2.30;;;13.10;99.90;;;;;;5072795;28;20090;-78
2022/12/02 06:11:34;;;;;;;8.20;2.95;;;12.80;99.90;;;;;;5207867;22;20057;-75
2022/12/02 06:14:05;;;;;;;6.30;2.75;;;12.80;99.90;;;;;;5055955;28;20143;-75
2022/12/02 06:16:31;;;;;;;5.65;2.60;;;12.90;99.90;;;;;;5056290;28;20048;-74
2022/12/02 06:19:07;;;;;;;5.20;2.40;;;12.90;99.90;;;;;;5055947;28;20159;-75
2022/12/02 06:21:33;;;;;;;6.03;2.42;;;12.90;99.90;;;;;;5056000;28;20025;-75
2022/12/02 06:24:00;;;;;;;4.73;2.50;;;13.10;99.90;;;;;;5056229;28;20047;-75
2022/12/02 06:26:26;;;;;;;6.07;2.40;;;13.20;99.90;;;;;;5055468;28;20040;-72
2022/12/02 06:29:00;;;;;;;6.77;2.30;;;13.40;99.90;;;;;;5054442;28;20028;-75
2022/12/02 06:31:37;;;;;;;5.20;2.70;;;13.70;99.90;;;;;;5055316;28;20037;-75
2022/12/02 06:34:42;;;;;;;4.82;2.25;;;14.00;99.90;;;;;;5054590;28;20039;-74
2022/12/02 06:37:28;;;;;;;5.03;2.67;;;14.40;99.90;;;;;;5035441;28;20543;-75
2022/12/02 06:39:57;;;;;;;3.72;2.25;;;14.60;99.90;;;;;;5035398;28;20049;-77
2022/12/02 06:42:34;;;;;;;4.88;2.33;;;14.80;99.90;;;;;;5034518;28;20040;-76
2022/12/02 06:45:26;;;;;;;6.40;2.17;;;15.00;99.90;;;;;;5034348;28;20033;-77
2022/12/02 06:48:24;;;;;;;4.30;2.30;;;15.50;99.90;;;;;;5034396;28;20026;-76
2022/12/02 06:50:50;;;;;;;8.23;2.63;;;15.70;99.90;;;;;;5033516;28;20022;-78
2022/12/02 06:53:19;;;;;;;4.68;2.25;;;16.10;99.90;;;;;;5033329;28;20465;-75
2022/12/02 06:55:46;;;;;;;3.15;1.85;;;16.60;99.90;;;;;;5033110;28;20022;-76
2022/12/02 06:58:32;;;;;;;6.07;2.38;;;16.90;99.90;;;;;;5032957;28;20025;-75
2022/12/02 07:01:09;;;;;;;;;;;16.70;99.90;;;;;;5034043;28;20420;-76
2022/12/02 07:03:44;;;;;;;3.55;1.90;;;16.50;99.90;;;;;;5033288;28;20321;-75
2022/12/02 07:06:18;;;;;;;7.38;2.20;;;16.10;99.90;;;;;;5032620;28;20076;-75
2022/12/02 07:08:45;;;;;;;3.92;2.20;;;15.90;99.90;;;;;;5033798;28;20085;-75
2022/12/02 07:11:55;;;;;;;10.32;2.25;;;15.80;99.90;;;;;;5032934;28;20045;-75
2022/12/02 07:14:43;;;;;;;4.97;2.28;;;15.90;99.90;;;;;;5033560;28;20068;-76
2022/12/02 07:17:28;;;;;;;4.30;2.35;;;15.90;99.90;;;;;;5033821;28;20079;-71
2022/12/02 07:19:57;;;;;;;7.47;2.70;;;15.90;99.90;;;;;;5033742;28;20033;-76
2022/12/02 07:22:33;;;;;;;5.07;2.30;;;16.00;99.90;;;;;;5045670;28;20025;-76
2022/12/02 07:25:24;;;;;;;4.70;2.00;;;16.20;99.90;;;;;;5053408;28;20066;-75
2022/12/02 07:27:51;;;;;;;3.78;1.80;;;16.60;99.90;;;;;;5053505;28;20029;-75
2022/12/02 07:30:28;;;;;;;6.25;1.92;;;16.70;99.90;;;;;;5051760;28;20456;-74
2022/12/02 07:32:55;;;;;;;3.10;1.88;;;16.70;99.90;;;;;;5053343;28;20032;-74
2022/12/02 07:35:21;;;;;;;;;;;16.60;99.90;;;;;;5054529;28;20502;-75
2022/12/02 07:37:47;;;;;;;4.55;1.85;;;16.40;99.90;;;;;;5051940;28;19999;-76
2022/12/02 07:40:30;;;;;;;4.68;1.85;;;16.20;99.90;;;;;;5052959;28;20075;-75
2022/12/02 07:42:56;;;;;;;3.72;1.80;;;16.00;99.90;;;;;;5052748;28;20029;-75
2022/12/02 07:45:22;;;;;;;3.60;1.80;;;15.90;99.90;;;;;;5052901;28;20088;-75
2022/12/02 07:47:49;;;;;;;;;;;15.70;99.90;;;;;;5041689;28;20146;-75
2022/12/02 07:50:16;;;;;;;4.30;2.17;;;15.60;99.90;;;;;;4998754;28;19912;-75
2022/12/02 07:52:54;;;;;;;4.03;2.38;;;15.50;99.90;;;;;;5032763;28;20473;-75
2022/12/02 07:55:20;;;;;;;3.85;2.20;;;15.30;99.90;;;;;;5032454;28;20083;-73
2022/12/02 07:57:46;;;;;;;5.83;2.40;;;15.20;99.90;;;;;;5043379;28;20025;-76
2022/12/02 08:00:14;;;;;;;5.47;2.83;;;15.20;99.90;;;;;;5047961;28;20485;-75
2022/12/02 08:02:40;;;;;;;9.82;2.15;;;15.10;99.90;;;;;;5032783;28;20087;-76
2022/12/02 08:05:06;;;;;;;4.43;1.50;;;15.10;99.90;;;;;;5033049;28;20099;-75
2022/12/02 08:07:35;;;;;;;2.35;1.55;;;15.10;99.90;;;;;;5032514;28;20039;-76
2022/12/02 08:10:01;;;;;;;6.53;2.42;;;15.10;99.90;;;;;;5032593;28;20025;-76
2022/12/02 08:12:27;;;;;;;6.70;2.40;;;15.10;99.90;;;;;;5031693;28;20450;-75
2022/12/02 08:14:59;;;;;;;6.60;2.53;;;15.10;99.90;;;;;;5023516;28;20428;-76
2022/12/02 08:17:25;;;;;;;5.50;2.25;;;15.20;99.90;;;;;;5033778;28;20579;-75
2022/12/02 08:19:51;;;;;;;5.50;2.00;;;15.20;99.90;;;;;;5051336;28;20503;-73
2022/12/02 08:22:17;;;;;;;4.22;2.22;;;15.20;99.90;;;;;;5052567;28;20070;-75
2022/12/02 08:24:44;;;;;;;4.67;2.20;;;15.20;99.90;;;;;;5033842;28;20036;-75
2022/12/02 08:27:10;;;;;;;4.47;2.30;;;15.20;99.90;;;;;;5052651;28;20078;-75
2022/12/02 08:29:36;;;;;;;4.93;2.40;;;15.10;99.90;;;;;;5052518;28;20017;-75
2022/12/02 08:32:02;;;;;;;4.67;2.57;;;15.00;99.90;;;;;;5052352;28;20020;-75
2022/12/02 08:34:28;;;;;;;4.07;2.40;;;15.00;99.90;;;;;;5052347;28;20033;-75
2022/12/02 08:36:54;;;;;;;4.18;2.38;;;15.00;99.90;;;;;;5052394;28;20056;-74
2022/12/02 08:39:20;;;;;;;5.80;2.80;;;14.80;99.90;;;;;;5052459;28;20029;-75
2022/12/02 08:41:46;;;;;;;4.57;2.00;;;14.80;99.90;;;;;;5052060;28;20369;-75
2022/12/02 08:44:58;;;;;;;4.30;2.23;;;14.80;99.90;;;;;;5051768;28;20482;-76
2022/12/02 08:47:24;;;;;;;5.43;2.42;;;14.80;99.90;;;;;;5052224;28;20083;-75
2022/12/02 08:49:51;;;;;;;10.10;6.00;;;14.70;99.90;;;;;;5052002;28;20120;-75
2022/12/02 08:52:17;;;;;;;3.28;1.92;;;14.70;99.90;;;;;;5032951;28;20020;-76
2022/12/02 08:54:47;;;;;;;5.60;2.67;;;14.70;99.90;;;;;;5051204;28;20390;-75
2022/12/02 08:57:13;;;;;;;5.15;2.40;;;14.70;99.90;;;;;;5050910;28;20115;-75
2022/12/02 08:59:40;;;;;;;3.75;2.10;;;14.60;99.90;;;;;;5050886;28;20040;-76
2022/12/02 09:02:06;;;;;;;4.65;2.40;;;14.60;99.90;;;;;;5050714;28;20021;-76
2022/12/02 09:04:32;;;;;;;4.93;2.43;;;14.50;99.90;;;;;;5050558;28;20025;-75
2022/12/02 09:06:58;;;;;;;5.93;2.42;;;14.60;99.90;;;;;;5050626;28;20032;-75
2022/12/02 09:09:24;;;;;;;9.52;2.17;;;14.50;99.90;;;;;;5050810;28;20025;-75
2022/12/02 09:11:50;;;;;;;6.97;2.70;;;14.50;99.90;;;;;;5050202;28;20208;-76
2022/12/02 09:14:16;;;;;;;4.03;2.07;;;14.50;99.90;;;;;;5050656;28;20436;-75
2022/12/02 09:16:42;;;;;;;4.30;2.57;;;14.50;99.90;;;;;;5051005;28;20060;-75
2022/12/02 09:19:08;;;;;;;4.93;2.53;;;14.50;99.90;;;;;;5052084;28;20039;-76
2022/12/02 09:21:34;;;;;;;3.93;2.23;;;14.40;99.90;;;;;;5051545;28;20104;-74
2022/12/02 09:24:00;;;;;;;6.43;2.33;;;14.50;99.90;;;;;;5051432;28;20387;-75
2022/12/02 09:26:26;;;;;;;5.25;2.50;;;14.50;99.90;;;;;;5051883;28;20116;-75
2022/12/02 09:28:52;;;;;;;5.07;2.40;;;14.50;99.90;;;;;;5052029;28;20116;-76
2022/12/02 09:31:18;;;;;;;4.53;2.53;;;14.50;99.90;;;;;;5051330;28;20029;-77
2022/12/02 09:33:45;;;;;;;4.53;2.47;;;14.40;99.90;;;;;;5051175;28;20271;-75
2022/12/02 09:36:11;;;;;;;3.77;2.10;;;14.40;99.90;;;;;;5051344;28;20051;-76
2022/12/02 09:38:37;;;;;;;4.33;2.07;;;14.50;99.90;;;;;;5051270;28;20017;-76
2022/12/02 09:41:03;;;;;;;4.97;2.47;;;14.50;99.90;;;;;;5050899;28;20033;-75
2022/12/02 09:43:31;;;;;;;5.18;2.60;;;14.50;99.90;;;;;;5051149;28;20040;-75
2022/12/02 09:45:58;;;;;;;3.58;1.98;;;14.50;99.90;;;;;;5050691;28;20392;-76
2022/12/02 09:48:25;;;;;;;7.40;2.88;;;14.50;99.90;;;;;;5050553;28;20052;-76
2022/12/02 09:50:53;;;;;;;5.25;3.20;;;14.50;99.90;;;;;;5050756;28;20104;-75
2022/12/02 09:53:59;;;;;;;4.80;3.00;;;14.50;99.90;;;;;;5050269;28;20032;-75
2022/12/02 09:56:25;;;;;;;6.13;3.50;;;14.40;99.90;;;;;;5050649;28;20032;-75
2022/12/02 09:58:54;;;;;;;7.18;3.60;;;14.30;99.90;;;;;;5050168;28;20381;-73
2022/12/02 10:01:21;;;;;;;6.57;3.88;;;14.40;99.90;;;;;;5050566;28;20072;-76
2022/12/02 10:03:49;;;;;;;8.43;3.70;;;14.30;99.90;;;;;;5050853;28;20021;-76
2022/12/02 10:06:27;;;;;;;7.05;3.92;;;14.30;99.90;;;;;;5050314;28;20037;-76
2022/12/02 10:08:56;;;;;;;6.82;3.40;;;14.20;99.90;;;;;;5049609;28;20017;-76
2022/12/02 10:11:31;;;;;;;6.45;3.53;;;14.20;99.90;;;;;;5029000;28;20053;-76
2022/12/02 10:13:58;;;;;;;8.07;4.10;;;14.20;99.90;;;;;;5030906;28;20333;-77
2022/12/02 10:16:27;;;;;;;6.00;3.67;;;14.20;99.90;;;;;;5030986;28;20021;-77
2022/12/02 10:19:01;;;;;;;6.07;4.10;;;14.20;99.90;;;;;;5038610;28;20161;-77
2022/12/02 10:21:28;;;;;;;6.78;3.50;;;14.20;99.90;;;;;;5054842;28;20057;-76
2022/12/02 10:23:58;;;;;;;7.53;3.95;;;14.20;99.90;;;;;;5054128;28;20107;-76
2022/12/02 10:26:25;;;;;;;5.60;3.42;;;14.30;99.90;;;;;;5053932;28;20033;-76
2022/12/02 10:29:06;;;;;;;5.43;3.33;;;14.30;99.90;;;;;;5054682;28;20467;-76
2022/12/02 10:31:33;;;;;;;6.82;3.33;;;14.30;99.90;;;;;;5054288;28;20029;-75
2022/12/02 10:34:31;;;;;;;5.05;3.03;;;14.30;99.90;;;;;;5054501;28;20029;-76
2022/12/02 10:37:22;;;;;;;4.97;3.40;;;14.40;99.90;;;;;;5054193;28;20029;-76
2022/12/02 10:40:04;;;;;;;5.55;3.70;;;14.40;99.90;;;;;;5050517;28;20028;-76
2022/12/02 10:42:30;;;;;;;6.45;3.80;;;14.50;99.90;;;;;;5034685;28;20104;-76
2022/12/02 10:45:20;;;;;;;6.63;3.13;;;14.50;99.90;;;;;;5032655;28;20049;-76
2022/12/02 10:47:47;;;;;;;5.50;3.33;;;14.50;99.90;;;;;;5050235;28;20030;-76
2022/12/02 10:50:17;;;;;;;6.25;3.58;;;14.50;99.90;;;;;;5034262;28;20021;-76
2022/12/02 10:52:48;;;;;;;7.18;3.28;;;14.50;99.90;;;;;;5045069;28;20115;-77
2022/12/02 10:55:16;;;;;;;4.40;2.88;;;14.60;99.90;;;;;;5054170;28;20032;-77
2022/12/02 10:57:44;;;;;;;8.60;3.45;;;14.70;99.90;;;;;;5054022;28;20456;-78
2022/12/02 11:00:22;;;;;;;6.22;3.38;;;14.70;99.90;;;;;;5053518;28;20117;-77
2022/12/02 11:02:54;;;;;;;9.27;3.70;;;14.80;99.90;;;;;;5035970;28;20017;-78
2022/12/02 11:05:24;;;;;;;5.45;3.28;;;14.80;99.90;;;;;;5033023;28;20072;-76
2022/12/02 11:08:15;;;;;;;5.50;3.67;;;14.80;99.90;;;;;;5054079;28;20033;-78
2022/12/02 11:10:44;;;;;;;5.22;3.15;;;14.80;99.90;;;;;;5053081;28;20306;-76
2022/12/02 11:13:14;;;;;;;7.25;3.58;;;14.80;99.90;;;;;;5033283;28;20525;-77
2022/12/02 11:15:45;;;;;;;6.90;3.33;;;14.90;99.90;;;;;;5033604;28;20084;-77
2022/12/02 11:18:25;;;;;;;9.90;3.08;;;15.00;99.90;;;;;;5033860;28;20032;-77
2022/12/02 11:21:00;;;;;;;5.82;3.45;;;15.00;99.90;;;;;;5002587;28;20027;-77
2022/12/02 11:23:28;;;;;;;6.78;3.58;;;15.10;99.90;;;;;;4993978;28;20060;-77
2022/12/02 11:25:59;;;;;;;6.00;3.65;;;15.20;99.90;;;;;;4993962;28;20061;-77
2022/12/02 11:28:28;;;;;;;10.82;3.83;;;15.30;99.90;;;;;;4994139;28;20411;-77
2022/12/02 11:31:09;;;;;;;9.02;3.47;;;15.30;99.90;;;;;;4994109;28;20033;-77
2022/12/02 11:33:47;;;;;;;4.53;2.90;;;15.40;99.90;;;;;;4993714;28;20142;-77
2022/12/02 11:36:28;;;;;;;4.30;2.03;;;15.40;99.90;;;;;;4993521;28;20026;-77
2022/12/02 11:38:55;;;;;;;6.25;3.78;;;15.50;99.90;;;;;;4993352;28;20073;-77
2022/12/02 11:41:41;;;;;;;5.35;3.58;;;15.50;99.90;;;;;;4993582;28;20035;-77
2022/12/02 11:44:24;;;;;;;6.90;3.70;;;15.60;99.90;;;;;;4994163;28;20069;-77
2022/12/02 11:46:56;;;;;;;8.15;3.72;;;15.70;99.90;;;;;;4976238;28;20105;-77
2022/12/02 11:49:27;;;;;;;4.68;2.60;;;15.90;99.90;;;;;;4994012;28;20077;-76
2022/12/02 11:52:05;;;;;;;8.57;3.65;;;15.90;99.90;;;;;;4994038;28;20031;-77
2022/12/02 11:54:39;;;;;;;7.40;3.38;;;15.90;99.90;;;;;;4993650;28;20046;-77
2022/12/02 11:57:05;;;;;;;9.43;3.58;;;16.00;99.90;;;;;;4993757;28;20030;-78
2022/12/02 11:59:33;;;;;;;;;;;16.00;99.90;;;;;;4994415;28;20018;-78
2022/12/02 12:02:19;;;;;;;4.72;3.10;;;16.10;99.90;;;;;;4993944;28;19906;-78
2022/12/02 12:04:46;;;;;;;7.55;3.42;;;16.10;99.90;;;;;;4992878;28;20026;-78
2022/12/02 12:07:13;;;;;;;5.95;2.60;;;16.20;99.90;;;;;;4993789;28;20038;-77
2022/12/02 12:09:39;;;;;;;5.22;3.30;;;16.20;99.90;;;;;;4994342;28;20026;-77
2022/12/02 12:12:17;;;;;;;6.20;3.13;;;16.20;99.90;;;;;;5004696;28;20049;-78
2022/12/02 12:14:54;;;;;;;6.47;2.75;;;16.30;99.90;;;;;;5013016;28;20026;-77
2022/12/02 12:17:39;;;;;;;6.32;3.50;;;16.40;99.90;;;;;;5012663;28;20449;-77
2022/12/02 12:20:25;;;;;;;8.68;3.05;;;16.50;99.90;;;;;;5013613;28;20101;-77
2022/12/02 12:22:51;;;;;;;5.75;3.20;;;16.30;99.90;;;;;;5012906;28;20382;-77
2022/12/02 12:25:40;;;;;;;7.80;3.60;;;16.30;99.90;;;;;;5012914;28;20026;-77
2022/12/02 12:28:22;;;;;;;4.47;2.40;;;16.30;99.90;;;;;;5013251;28;20355;-78
2022/12/02 12:30:50;;;;;;;5.20;2.60;;;16.30;99.90;;;;;;5012704;28;20556;-77
2022/12/02 12:33:16;;;;;;;6.45;3.13;;;16.20;99.90;;;;;;5013541;28;20025;-77
2022/12/02 12:35:42;;;;;;;5.53;2.90;;;16.20;99.90;;;;;;5013531;28;20026;-77
2022/12/02 12:38:08;;;;;;;5.82;2.90;;;16.30;99.90;;;;;;5013448;28;20026;-77
2022/12/02 12:40:35;;;;;;;9.80;3.33;;;16.30;99.90;;;;;;5013098;28;20032;-77
2022/12/02 12:43:01;;;;;;;4.88;2.88;;;16.40;99.90;;;;;;5012365;28;20308;-77
2022/12/02 12:45:29;;;;;;;4.88;2.75;;;16.40;99.90;;;;;;5013024;28;20045;-77
2022/12/02 12:47:55;;;;;;;6.07;3.00;;;16.40;99.90;;;;;;5012388;28;20181;-77
2022/12/02 12:50:22;;;;;;;7.20;2.75;;;16.40;99.90;;;;;;5012199;28;20084;-78
2022/12/02 12:52:57;;;;;;;;;;;16.40;99.90;;;;;;5012729;28;20018;-77
2022/12/02 12:55:23;;;;;;;4.85;2.80;;;16.30;99.90;;;;;;5012322;28;19912;-76
2022/12/02 12:57:49;;;;;;;5.55;2.72;;;16.30;99.90;;;;;;5012922;28;20471;-78
2022/12/02 13:00:16;;;;;;;6.75;2.80;;;16.20;99.90;;;;;;5012155;28;20022;-77
2022/12/02 13:02:42;;;;;;;6.15;2.70;;;16.10;99.90;;;;;;5011788;28;20437;-77
2022/12/02 13:05:08;;;;;;;6.47;2.83;;;16.20;99.90;;;;;;5012155;28;20032;-77
2022/12/02 13:07:34;;;;;;;6.07;2.83;;;16.20;99.90;;;;;;5011275;28;20366;-76
2022/12/02 13:10:01;;;;;;;4.57;2.20;;;16.20;99.90;;;;;;5012360;28;20053;-75
2022/12/02 13:12:27;;;;;;;5.30;2.55;;;16.30;99.90;;;;;;5011746;28;20312;-75
2022/12/02 13:14:53;;;;;;;6.07;2.78;;;16.30;99.90;;;;;;5012078;28;20096;-75
2022/12/02 13:17:19;;;;;;;6.83;2.77;;;16.30;99.90;;;;;;5012916;28;20411;-76
2022/12/02 13:19:45;;;;;;;4.63;2.80;;;16.30;99.90;;;;;;5012543;28;20687;-76
2022/12/02 13:22:11;;;;;;;7.17;2.97;;;16.30;99.90;;;;;;5013129;28;20276;-76
2022/12/02 13:24:38;;;;;;;4.97;2.60;;;16.30;99.90;;;;;;5012777;28;20021;-76
2022/12/02 13:27:05;;;;;;;5.22;2.67;;;16.30;99.90;;;;;;5012615;28;20037;-75
2022/12/02 13:29:31;;;;;;;;;;;16.20;99.90;;;;;;5013339;28;20069;-75
2022/12/02 13:31:57;;;;;;;4.90;2.50;;;16.10;99.90;;;;;;5012551;28;19909;-75
2022/12/02 13:34:23;;;;;;;6.68;2.90;;;16.10;99.90;;;;;;5012206;28;20105;-76
2022/12/02 13:36:49;;;;;;;7.87;2.83;;;16.10;99.90;;;;;;5012452;28;20101;-76
2022/12/02 13:39:15;;;;;;;7.90;2.60;;;16.10;99.90;;;;;;5013142;28;20113;-75
2022/12/02 13:41:41;;;;;;;6.83;2.97;;;16.00;99.90;;;;;;5013103;28;20026;-77
2022/12/02 13:44:07;;;;;;;7.43;3.25;;;15.90;99.90;;;;;;5012465;28;20184;-78
2022/12/02 13:46:33;;;;;;;6.30;2.70;;;16.00;99.90;;;;;;5013034;28;20099;-77
2022/12/02 13:48:59;;;;;;;9.00;4.10;;;16.00;99.90;;;;;;5012702;28;20062;-77
2022/12/02 13:51:26;;;;;;;;;;;16.00;99.90;;;;;;5012215;28;20033;-78
2022/12/02 13:53:52;;;;;;;8.27;3.90;;;16.00;99.90;;;;;;5014113;28;20380;-78
2022/12/02 13:56:18;;;;;;;7.75;2.92;;;16.00;99.90;;;;;;5016280;28;20355;-79
2022/12/02 13:58:44;;;;;;;6.10;2.63;;;15.90;99.90;;;;;;5016211;28;20491;-78
2022/12/02 14:01:11;;;;;;;4.83;2.93;;;15.90;99.90;;;;;;5015900;28;20021;-78
2022/12/02 14:03:37;;;;;;;9.63;3.08;;;15.80;99.90;;;;;;5016006;28;20297;-77
2022/12/02 14:06:03;;;;;;;8.18;2.80;;;15.80;99.90;;;;;;5014591;28;20048;-77
2022/12/02 14:08:29;;;;;;;5.50;2.55;;;15.80;99.90;;;;;;5015907;28;20030;-77
2022/12/02 14:10:55;;;;;;;4.97;2.90;;;15.80;99.90;;;;;;5015864;28;20029;-78
2022/12/02 14:13:21;;;;;;;8.33;3.00;;;15.70;99.90;;;;;;5016242;28;20253;-77
2022/12/02 14:15:47;;;;;;;6.90;2.92;;;15.70;99.90;;;;;;5015966;28;20017;-78
2022/12/02 14:18:13;;;;;;;5.10;2.58;;;15.70;99.90;;;;;;5016565;28;20026;-77
2022/12/02 14:20:39;;;;;;;8.70;2.90;;;15.60;99.90;;;;;;5016351;28;20332;-78
2022/12/02 14:23:07;;;;;;;4.18;2.28;;;15.60;99.90;;;;;;5014842;28;20315;-78
2022/12/02 14:25:33;;;;;;;6.32;2.50;;;15.60;99.90;;;;;;5016130;28;20038;-76
2022/12/02 14:27:59;;;;;;;5.13;2.90;;;15.50;99.90;;;;;;5016549;28;20029;-78
2022/12/02 14:30:25;;;;;;;9.50;3.20;;;15.50;99.90;;;;;;5016069;28;20037;-78
2022/12/02 14:32:51;;;;;;;11.27;3.27;;;15.50;99.90;;;;;;5015982;28;20030;-77
2022/12/02 14:35:17;;;;;;;6.80;2.87;;;15.50;99.90;;;;;;5015826;28;20277;-77
2022/12/02 14:37:43;;;;;;;6.40;2.90;;;15.50;99.90;;;;;;5016129;28;20748;-76
2022/12/02 14:40:12;;;;;;;5.57;2.77;;;15.40;99.90;;;;;;5015836;28;20092;-77
2022/12/02 14:42:38;;;;;;;4.35;2.80;;;15.40;99.90;;;;;;5016533;28;20266;-76
2022/12/02 14:45:06;;;;;;;3.97;2.88;;;15.40;99.90;;;;;;5016113;28;20492;-77
2022/12/02 14:47:32;;;;;;;5.88;2.47;;;15.40;99.90;;;;;;5016002;28;20116;-77
2022/12/02 14:49:58;;;;;;;4.93;2.75;;;15.40;99.90;;;;;;5014992;28;20033;-77
2022/12/02 14:52:24;;;;;;;8.17;3.23;;;15.30;99.90;;;;;;5015035;28;20488;-76
2022/12/02 14:54:50;;;;;;;7.37;3.40;;;15.20;99.90;;;;;;5014790;28;20340;-77
2022/12/02 14:57:16;;;;;;;5.57;3.00;;;15.20;99.90;;;;;;5014933;28;20026;-78
2022/12/02 14:59:43;;;;;;;6.28;3.20;;;15.30;99.90;;;;;;5013583;28;20036;-75
2022/12/02 15:02:10;;;;;;;7.95;3.00;;;15.20;99.90;;;;;;5013431;28;20307;-78
2022/12/02 15:04:36;;;;;;;6.70;3.08;;;15.20;99.90;;;;;;5014347;28;20444;-77
2022/12/02 15:07:02;;;;;;;6.13;3.40;;;15.10;99.90;;;;;;5013607;28;20026;-77
2022/12/02 15:09:28;;;;;;;4.23;2.90;;;15.00;99.90;;;;;;5015098;28;20307;-77
2022/12/02 15:11:54;;;;;;;5.07;3.10;;;15.00;99.90;;;;;;5014719;28;20048;-80
2022/12/02 15:14:20;;;;;;;6.85;2.95;;;15.00;99.90;;;;;;5015128;28;20342;-77
2022/12/02 15:16:46;;;;;;;5.17;3.20;;;14.90;99.90;;;;;;5015008;28;20021;-76
2022/12/02 15:19:12;;;;;;;8.88;3.25;;;14.90;99.90;;;;;;5014635;28;20030;-77
2022/12/02 15:21:38;;;;;;;6.90;3.07;;;14.90;99.90;;;;;;5014468;28;20496;-76
2022/12/02 15:24:05;;;;;;;7.53;3.60;;;14.70;99.90;;;;;;5012871;28;20390;-76
2022/12/02 15:26:32;;;;;;;10.02;4.28;;;14.70;99.90;;;;;;5014261;28;20429;-76
2022/12/02 15:28:57;;;;;;;11.13;4.80;;;14.70;99.90;;;;;;5014854;28;20030;-76
2022/12/02 15:31:25;;;;;;;9.33;5.70;;;14.80;99.90;;;;;;5014252;28;20269;-76
2022/12/02 15:33:51;;;;;;;9.65;5.00;;;14.80;99.90;;;;;;5014113;28;20026;-77
2022/12/02 15:36:17;;;;;;;8.13;4.57;;;14.90;99.90;;;;;;5014337;28;20097;-76
2022/12/02 15:38:43;;;;;;;8.27;4.70;;;14.90;99.90;;;;;;5014445;28;20252;-76
2022/12/02 15:41:10;;;;;;;11.93;5.72;;;14.80;99.90;;;;;;5014701;28;20068;-78
2022/12/02 15:43:36;;;;;;;10.73;6.87;;;14.90;99.90;;;;;;5014319;28;20113;-77
2022/12/02 15:46:02;;;;;;;10.48;6.30;;;14.70;99.90;;;;;;5014130;28;20482;-75
2022/12/02 15:48:28;;;;;;;12.18;6.35;;;14.60;99.90;;;;;;5014042;28;20025;-77
2022/12/02 15:50:54;;;;;;;13.95;7.05;;;14.50;99.90;;;;;;5013780;28;20513;-77
2022/12/02 15:53:20;;;;;;;10.55;5.47;;;14.40;99.90;;;;;;5020988;28;20051;-76
2022/12/02 15:55:46;;;;;;;7.97;4.97;;;14.20;99.90;;;;;;5033228;28;20025;-76
2022/12/02 15:58:12;;;;;;;9.98;4.90;;;14.10;99.90;;;;;;5033261;28;20064;-75
2022/12/02 16:00:38;;;;;;;9.60;4.07;;;14.00;99.90;;;;;;5033152;28;20044;-75
2022/12/02 16:03:29;;;;;;;7.53;4.20;;;13.90;99.90;;;;;;5032852;28;20040;-75
2022/12/02 16:05:56;;;;;;;8.52;4.15;;;13.80;99.90;;;;;;5033150;28;20042;-75
2022/12/02 16:08:22;;;;;;;4.07;2.60;;;13.80;99.90;;;;;;5032915;28;20045;-75
2022/12/02 16:10:48;;;;;;;5.27;3.00;;;13.80;99.90;;;;;;5032926;28;20044;-74
2022/12/02 16:13:14;;;;;;;3.53;2.08;;;13.80;99.90;;;;;;5032889;28;20268;-73
2022/12/02 16:15:40;;;;;;;6.40;3.10;;;13.80;99.90;;;;;;5032196;28;20044;-74
2022/12/02 16:18:06;;;;;;;6.80;3.67;;;13.80;99.90;;;;;;5033368;28;20377;-73
2022/12/02 16:20:32;;;;;;;5.60;3.30;;;13.80;99.90;;;;;;5033571;28;20125;-74
2022/12/02 16:22:58;;;;;;;5.10;2.60;;;13.80;99.90;;;;;;5033570;28;20264;-74
2022/12/02 16:25:24;;;;;;;4.47;2.83;;;13.80;99.90;;;;;;5032961;28;20521;-73
2022/12/02 16:27:50;;;;;;;8.57;3.40;;;13.80;99.90;;;;;;5032943;28;20256;-74
2022/12/02 16:30:16;;;;;;;6.60;3.38;;;13.80;99.90;;;;;;5033380;28;20025;-72
2022/12/02 16:32:43;;;;;;;4.93;2.70;;;13.80;99.90;;;;;;5032949;28;20393;-74
2022/12/02 16:35:09;;;;;;;6.20;3.78;;;13.80;99.90;;;;;;5032829;28;20268;-74
2022/12/02 16:37:35;;;;;;;3.83;2.60;;;13.80;99.90;;;;;;5033056;28;20017;-73
2022/12/02 16:40:02;;;;;;;5.73;2.60;;;13.70;99.90;;;;;;5032701;28;20385;-72
2022/12/02 16:42:28;;;;;;;8.15;3.78;;;13.70;99.90;;;;;;5032956;28;20021;-72
2022/12/02 16:44:55;;;;;;;5.30;2.47;;;13.70;99.90;;;;;;5032624;28;20032;-73
2022/12/02 16:47:22;;;;;;;6.27;3.43;;;13.70;99.90;;;;;;5032759;28;20489;-68
2022/12/02 16:49:48;;;;;;;9.52;4.28;;;13.60;99.90;;;;;;5032694;28;20033;-74
2022/12/02 16:52:14;;;;;;;6.63;2.42;;;13.60;99.90;;;;;;5032448;28;20096;-74
2022/12/02 16:54:40;;;;;;;5.40;2.83;;;13.60;99.90;;;;;;5032339;28;20108;-74
2022/12/02 16:57:06;;;;;;;2.85;1.92;;;13.60;99.90;;;;;;5032450;28;20076;-73
2022/12/02 16:59:32;;;;;;;5.60;2.95;;;13.60;99.90;;;;;;5032442;28;20406;-72
2022/12/02 17:01:58;;;;;;;5.47;3.00;;;13.50;99.90;;;;;;5032642;28;20069;-74
2022/12/02 17:04:24;;;;;;;6.97;3.03;;;13.50;99.90;;;;;;5032206;28;20334;-74
2022/12/02 17:06:50;;;;;;;4.17;2.20;;;13.50;99.90;;;;;;5032174;28;20037;-73
2022/12/02 17:09:16;;;;;;;4.00;2.17;;;13.50;99.90;;;;;;5032041;28;20431;-73
2022/12/02 17:11:45;;;;;;;5.10;2.77;;;13.50;99.90;;;;;;5032059;28;20076;-74
2022/12/02 17:14:11;;;;;;;4.70;2.70;;;13.50;99.90;;;;;;5032303;28;20029;-74
2022/12/02 17:16:37;;;;;;;4.30;2.65;;;13.50;99.90;;;;;;5032466;28;20022;-74
2022/12/02 17:19:03;;;;;;;5.03;2.27;;;13.50;99.90;;;;;;5033027;28;20048;-74
2022/12/02 17:21:30;;;;;;;5.87;2.50;;;13.50;99.90;;;;;;5033112;28;20033;-75
2022/12/02 17:23:56;;;;;;;4.53;2.47;;;13.50;99.90;;;;;;5033001;28;20271;-74
2022/12/02 17:26:22;;;;;;;3.97;2.50;;;13.60;99.90;;;;;;5031340;28;20318;-74
2022/12/02 17:28:49;;;;;;;6.40;3.43;;;13.60;99.90;;;;;;5038798;28;20032;-74
2022/12/02 17:31:15;;;;;;;3.72;2.20;;;13.60;99.90;;;;;;5039542;28;20029;-73
2022/12/02 17:33:41;;;;;;;5.93;2.90;;;13.60;99.90;;;;;;5039595;28;20033;-74
2022/12/02 17:36:07;;;;;;;4.47;2.87;;;13.60;99.90;;;;;;5039350;28;20021;-76
2022/12/02 17:38:49;;;;;;;4.40;2.22;;;13.60;99.90;;;;;;5039437;28;20029;-77
2022/12/02 17:41:25;;;;;;;7.82;3.13;;;13.60;99.90;;;;;;5039400;28;20052;-77
2022/12/02 17:43:54;;;;;;;4.07;2.20;;;13.50;99.90;;;;;;5039408;28;20512;-77
2022/12/02 17:46:20;;;;;;;4.47;2.85;;;13.50;99.90;;;;;;5038899;28;20040;-77
2022/12/02 17:48:47;;;;;;;7.70;2.80;;;13.50;99.90;;;;;;5039068;28;20028;-78
2022/12/02 17:51:15;;;;;;;3.47;2.08;;;13.50;99.90;;;;;;5039045;28;20287;-77
2022/12/02 17:53:41;;;;;;;4.68;2.88;;;13.50;99.90;;;;;;5038792;28;20037;-79
2022/12/02 17:56:08;;;;;;;4.55;2.60;;;13.50;99.90;;;;;;5038761;28;20045;-73
2022/12/02 17:58:35;;;;;;;4.65;2.63;;;13.50;99.90;;;;;;5038814;28;20491;-77
2022/12/02 18:01:04;;;;;;;5.43;2.65;;;13.60;99.90;;;;;;5039095;28;20032;-77
2022/12/02 18:03:30;;;;;;;4.35;2.58;;;13.60;99.90;;;;;;5039619;28;20099;-77
2022/12/02 18:05:56;;;;;;;4.50;2.80;;;13.60;99.90;;;;;;5038866;28;20481;-77
2022/12/02 18:08:22;;;;;;;4.93;2.50;;;13.60;99.90;;;;;;5039005;28;20025;-78
2022/12/02 18:10:48;;;;;;;6.07;2.53;;;13.70;99.90;;;;;;5039457;28;20425;-77
2022/12/02 18:13:15;;;;;;;4.82;2.67;;;13.60;99.90;;;;;;5039189;28;20037;-76
2022/12/02 18:15:41;;;;;;;4.93;2.95;;;13.60;99.90;;;;;;5039615;28;20071;-77
2022/12/02 18:18:07;;;;;;;8.43;3.70;;;13.70;99.90;;;;;;5039262;28;20028;-78
2022/12/02 18:20:34;;;;;;;5.33;3.13;;;13.60;99.90;;;;;;5039315;28;20260;-79
2022/12/02 18:23:00;;;;;;;5.60;3.10;;;13.60;99.90;;;;;;5038851;28;20030;-77
2022/12/02 18:25:26;;;;;;;3.77;2.00;;;13.60;99.90;;;;;;5039018;28;20405;-76
2022/12/02 18:27:52;;;;;;;3.80;2.45;;;13.70;99.90;;;;;;5038948;28;20389;-76
2022/12/02 18:30:19;;;;;;;3.70;2.57;;;13.70;99.90;;;;;;5038651;28;20115;-77
2022/12/02 18:32:48;;;;;;;5.00;3.00;;;13.60;99.90;;;;;;5039016;28;20029;-76
2022/12/02 18:35:14;;;;;;;3.90;2.63;;;13.70;99.90;;;;;;5038685;28;20040;-76
2022/12/02 18:37:41;;;;;;;;;;;13.70;99.90;;;;;;5039408;28;20031;-77
2022/12/02 18:40:07;;;;;;;4.68;2.63;;;13.70;99.90;;;;;;5035548;28;19905;-77
2022/12/02 18:42:33;;;;;;;7.30;2.60;;;13.80;99.90;;;;;;5035535;28;20051;-77
2022/12/02 18:44:59;;;;;;;2.38;1.55;;;13.90;99.90;;;;;;5035858;28;20037;-77
2022/12/02 18:47:25;;;;;;;4.67;2.00;;;13.90;99.90;;;;;;5035827;28;20033;-77
2022/12/02 18:49:51;;;;;;;5.10;2.13;;;13.90;99.90;;;;;;5035799;28;20021;-78
2022/12/02 18:52:18;;;;;;;3.23;1.67;;;14.00;99.90;;;;;;5035540;28;20514;-77
2022/12/02 18:54:44;;;;;;;3.42;2.03;;;14.00;99.90;;;;;;5034946;28;20033;-77
2022/12/02 18:57:10;;;;;;;4.15;2.08;;;14.00;99.90;;;;;;5033570;28;20176;-77
2022/12/02 18:59:36;;;;;;;3.03;1.80;;;14.00;99.90;;;;;;5034939;28;20191;-78
2022/12/02 19:02:02;;;;;;;6.37;2.03;;;14.00;99.90;;;;;;5034774;28;20032;-77
2022/12/02 19:04:28;;;;;;;4.45;1.60;;;13.90;99.90;;;;;;5034808;28;20127;-77
2022/12/02 19:06:54;;;;;;;3.95;1.92;;;13.90;99.90;;;;;;5034441;28;20079;-77